Hlavní strana
METAR-TAF:

METAR-TAF

Letiště :

Colville Lake, Severozápadní teritoria, Kanada

zeměpisná šířka: 67-01-16N, zeměpisná délka: 126-07-43W, výška: 274 m

Aktuální stav počasí

Zpráva byla vytvořena před 29 hodinami a 10 minutami, v 00:00 UTC
Severoseverozápadní vítr 10 kt
Teplota 14°C
Vlhkost vzduchu 67%
Tlak 1014 hPa
Viditelnost: 14.5 km
Skoro jasno ve výšce 5500 ft
Oblačno až skoro zataženo ve výšce 13000 ft

METAR: CYVL 210000Z AUTO 33010KT 9SM FEW055 BKN130 14/08 A2994 RMK SLP152 DENSITY ALT 900FT

Čas: 23:10 (05:10 UTC)


TAF: chybějící

Stav a předpovědi počasí z více než 4 000 letišť (zprávy METAR a TAF).

Červené a žluté tečky na mapě představují dostupné meteorologické stanice.

Když kurzor umístíte na tečku, zobrazí se název stanice.

Pak kliknutím zobrazíte stav a předpověď počasí.

Chcete-li změnit mapu, kliknutím na zelené tlačítko se znaménkem +mapu přiblížíte, kliknutím na zelené tlačítko se znaménkem – mapu oddálíte a kliknutím na zelené šipky přejdete na sousední mapy.


METAR-TAF: